sensor_id;sensor_type;location;lat;lon;timestamp;temperature;humidity
16980;DHT22;42288;52.182;21.156;2022-07-05T00:02:01;20.00;92.20
16980;DHT22;42288;52.182;21.156;2022-07-05T00:04:26;19.90;92.10
16980;DHT22;42288;52.182;21.156;2022-07-05T00:06:52;19.70;92.40
16980;DHT22;42288;52.182;21.156;2022-07-05T00:09:36;19.60;92.80
16980;DHT22;42288;52.182;21.156;2022-07-05T00:12:02;19.40;93.50
16980;DHT22;42288;52.182;21.156;2022-07-05T00:14:27;19.50;94.50
16980;DHT22;42288;52.182;21.156;2022-07-05T00:16:53;19.40;94.80
16980;DHT22;42288;52.182;21.156;2022-07-05T00:19:19;19.50;95.00
16980;DHT22;42288;52.182;21.156;2022-07-05T00:21:45;19.50;95.30
16980;DHT22;42288;52.182;21.156;2022-07-05T00:24:10;19.60;95.50
16980;DHT22;42288;52.182;21.156;2022-07-05T00:26:36;19.50;96.20
16980;DHT22;42288;52.182;21.156;2022-07-05T00:29:01;19.50;96.30
16980;DHT22;42288;52.182;21.156;2022-07-05T00:31:27;19.60;96.50
16980;DHT22;42288;52.182;21.156;2022-07-05T00:33:52;19.50;96.90
16980;DHT22;42288;52.182;21.156;2022-07-05T00:36:18;19.60;97.00
16980;DHT22;42288;52.182;21.156;2022-07-05T00:38:43;19.60;96.90
16980;DHT22;42288;52.182;21.156;2022-07-05T00:41:09;19.50;97.00
16980;DHT22;42288;52.182;21.156;2022-07-05T00:43:34;19.60;97.00
16980;DHT22;42288;52.182;21.156;2022-07-05T00:46:00;19.60;96.90
16980;DHT22;42288;52.182;21.156;2022-07-05T00:48:25;19.60;96.80
16980;DHT22;42288;52.182;21.156;2022-07-05T00:50:51;19.70;96.60
16980;DHT22;42288;52.182;21.156;2022-07-05T00:53:17;19.70;96.60
16980;DHT22;42288;52.182;21.156;2022-07-05T00:55:43;19.70;96.30
16980;DHT22;42288;52.182;21.156;2022-07-05T00:58:10;19.80;96.20
16980;DHT22;42288;52.182;21.156;2022-07-05T01:00:36;19.90;95.90
16980;DHT22;42288;52.182;21.156;2022-07-05T01:03:02;19.90;95.90
16980;DHT22;42288;52.182;21.156;2022-07-05T01:05:28;20.00;96.00
16980;DHT22;42288;52.182;21.156;2022-07-05T01:07:55;20.00;96.00
16980;DHT22;42288;52.182;21.156;2022-07-05T01:10:21;20.10;96.10
16980;DHT22;42288;52.182;21.156;2022-07-05T01:12:47;20.10;96.00
16980;DHT22;42288;52.182;21.156;2022-07-05T01:15:13;20.10;96.00
16980;DHT22;42288;52.182;21.156;2022-07-05T01:17:38;19.70;96.00
16980;DHT22;42288;52.182;21.156;2022-07-05T01:20:06;19.80;96.40
16980;DHT22;42288;52.182;21.156;2022-07-05T01:25:18;20.00;96.50
16980;DHT22;42288;52.182;21.156;2022-07-05T01:27:45;20.10;96.30
16980;DHT22;42288;52.182;21.156;2022-07-05T01:30:11;20.20;96.20
16980;DHT22;42288;52.182;21.156;2022-07-05T01:32:37;20.00;96.10
16980;DHT22;42288;52.182;21.156;2022-07-05T01:35:03;19.90;96.40
16980;DHT22;42288;52.182;21.156;2022-07-05T01:37:29;20.00;96.50
16980;DHT22;42288;52.182;21.156;2022-07-05T01:39:56;20.00;96.30
16980;DHT22;42288;52.182;21.156;2022-07-05T01:42:22;20.00;96.30
16980;DHT22;42288;52.182;21.156;2022-07-05T01:44:47;19.90;96.50
16980;DHT22;42288;52.182;21.156;2022-07-05T01:47:15;19.90;96.40
16980;DHT22;42288;52.182;21.156;2022-07-05T01:49:45;19.70;96.50
16980;DHT22;42288;52.182;21.156;2022-07-05T01:52:12;19.60;96.90
16980;DHT22;42288;52.182;21.156;2022-07-05T01:54:38;19.50;96.90
16980;DHT22;42288;52.182;21.156;2022-07-05T01:57:06;19.50;97.00
16980;DHT22;42288;52.182;21.156;2022-07-05T01:59:35;19.50;97.30
16980;DHT22;42288;52.182;21.156;2022-07-05T02:02:03;19.40;97.30
16980;DHT22;42288;52.182;21.156;2022-07-05T02:04:29;19.30;97.50
16980;DHT22;42288;52.182;21.156;2022-07-05T02:06:55;19.40;97.30
16980;DHT22;42288;52.182;21.156;2022-07-05T02:09:20;19.30;97.50
16980;DHT22;42288;52.182;21.156;2022-07-05T02:11:46;19.40;97.50
16980;DHT22;42288;52.182;21.156;2022-07-05T02:14:11;19.40;97.40
16980;DHT22;42288;52.182;21.156;2022-07-05T02:16:37;19.40;97.30
16980;DHT22;42288;52.182;21.156;2022-07-05T02:19:03;19.30;97.40
16980;DHT22;42288;52.182;21.156;2022-07-05T02:21:29;19.30;97.60
16980;DHT22;42288;52.182;21.156;2022-07-05T02:23:55;19.40;97.50
16980;DHT22;42288;52.182;21.156;2022-07-05T02:26:20;19.30;97.40
16980;DHT22;42288;52.182;21.156;2022-07-05T02:28:46;19.20;97.80
16980;DHT22;42288;52.182;21.156;2022-07-05T02:31:12;19.20;97.80
16980;DHT22;42288;52.182;21.156;2022-07-05T02:33:38;19.10;97.90
16980;DHT22;42288;52.182;21.156;2022-07-05T02:36:11;19.30;97.90
16980;DHT22;42288;52.182;21.156;2022-07-05T02:38:38;19.30;97.50
16980;DHT22;42288;52.182;21.156;2022-07-05T02:41:08;19.20;97.60
16980;DHT22;42288;52.182;21.156;2022-07-05T02:43:34;19.20;97.50
16980;DHT22;42288;52.182;21.156;2022-07-05T02:46:01;19.10;97.50
16980;DHT22;42288;52.182;21.156;2022-07-05T02:48:26;19.20;97.40
16980;DHT22;42288;52.182;21.156;2022-07-05T02:50:52;19.30;97.50
16980;DHT22;42288;52.182;21.156;2022-07-05T02:53:17;19.30;97.50
16980;DHT22;42288;52.182;21.156;2022-07-05T02:55:43;19.30;97.60
16980;DHT22;42288;52.182;21.156;2022-07-05T02:58:09;19.30;97.40
16980;DHT22;42288;52.182;21.156;2022-07-05T03:00:34;19.20;97.60
16980;DHT22;42288;52.182;21.156;2022-07-05T03:03:00;19.30;97.50
16980;DHT22;42288;52.182;21.156;2022-07-05T03:05:25;19.20;97.50
16980;DHT22;42288;52.182;21.156;2022-07-05T03:07:51;19.30;97.20
16980;DHT22;42288;52.182;21.156;2022-07-05T03:10:16;19.30;97.20
16980;DHT22;42288;52.182;21.156;2022-07-05T03:12:42;19.40;97.00
16980;DHT22;42288;52.182;21.156;2022-07-05T03:15:08;19.30;97.10
16980;DHT22;42288;52.182;21.156;2022-07-05T03:17:33;19.60;97.20
16980;DHT22;42288;52.182;21.156;2022-07-05T03:19:59;19.60;96.80
16980;DHT22;42288;52.182;21.156;2022-07-05T03:22:24;19.50;96.50
16980;DHT22;42288;52.182;21.156;2022-07-05T03:24:50;19.50;96.90
16980;DHT22;42288;52.182;21.156;2022-07-05T03:27:15;19.60;96.80
16980;DHT22;42288;52.182;21.156;2022-07-05T03:29:41;19.60;96.50
16980;DHT22;42288;52.182;21.156;2022-07-05T03:32:07;19.70;96.30
16980;DHT22;42288;52.182;21.156;2022-07-05T03:34:32;19.50;96.70
16980;DHT22;42288;52.182;21.156;2022-07-05T03:36:58;19.50;96.80
16980;DHT22;42288;52.182;21.156;2022-07-05T03:39:23;19.60;96.80
16980;DHT22;42288;52.182;21.156;2022-07-05T03:41:49;19.70;96.90
16980;DHT22;42288;52.182;21.156;2022-07-05T03:44:14;19.70;96.60
16980;DHT22;42288;52.182;21.156;2022-07-05T03:46:40;19.70;96.40
16980;DHT22;42288;52.182;21.156;2022-07-05T03:49:05;19.60;96.40
16980;DHT22;42288;52.182;21.156;2022-07-05T03:51:31;19.80;96.40
16980;DHT22;42288;52.182;21.156;2022-07-05T03:53:57;19.90;96.00
16980;DHT22;42288;52.182;21.156;2022-07-05T03:56:22;20.00;95.60
16980;DHT22;42288;52.182;21.156;2022-07-05T03:58:49;19.70;95.70
16980;DHT22;42288;52.182;21.156;2022-07-05T04:01:15;19.90;95.90
16980;DHT22;42288;52.182;21.156;2022-07-05T04:03:41;19.90;95.80
16980;DHT22;42288;52.182;21.156;2022-07-05T04:06:09;19.70;95.60
16980;DHT22;42288;52.182;21.156;2022-07-05T04:08:34;19.80;95.80
16980;DHT22;42288;52.182;21.156;2022-07-05T04:11:00;19.90;95.80
16980;DHT22;42288;52.182;21.156;2022-07-05T04:13:26;19.80;95.70
16980;DHT22;42288;52.182;21.156;2022-07-05T04:15:51;19.80;95.60
16980;DHT22;42288;52.182;21.156;2022-07-05T04:18:18;19.50;96.00
16980;DHT22;42288;52.182;21.156;2022-07-05T04:20:44;19.60;96.20
16980;DHT22;42288;52.182;21.156;2022-07-05T04:23:09;19.80;96.00
16980;DHT22;42288;52.182;21.156;2022-07-05T04:25:35;19.70;96.00
16980;DHT22;42288;52.182;21.156;2022-07-05T04:28:00;19.70;95.80
16980;DHT22;42288;52.182;21.156;2022-07-05T04:30:26;19.80;95.70
16980;DHT22;42288;52.182;21.156;2022-07-05T04:32:52;19.80;95.60
16980;DHT22;42288;52.182;21.156;2022-07-05T04:35:17;19.90;95.70
16980;DHT22;42288;52.182;21.156;2022-07-05T04:37:43;19.80;95.60
16980;DHT22;42288;52.182;21.156;2022-07-05T04:40:11;19.80;95.50
16980;DHT22;42288;52.182;21.156;2022-07-05T04:42:37;19.80;95.50
16980;DHT22;42288;52.182;21.156;2022-07-05T04:45:03;19.90;95.60
16980;DHT22;42288;52.182;21.156;2022-07-05T04:47:29;19.90;95.50
16980;DHT22;42288;52.182;21.156;2022-07-05T04:49:56;20.10;95.40
16980;DHT22;42288;52.182;21.156;2022-07-05T04:52:25;20.10;95.20
16980;DHT22;42288;52.182;21.156;2022-07-05T04:54:51;20.30;95.20
16980;DHT22;42288;52.182;21.156;2022-07-05T04:57:17;20.40;95.00
16980;DHT22;42288;52.182;21.156;2022-07-05T04:59:42;20.50;94.80
16980;DHT22;42288;52.182;21.156;2022-07-05T05:02:09;20.60;94.70
16980;DHT22;42288;52.182;21.156;2022-07-05T05:04:35;20.70;94.50
16980;DHT22;42288;52.182;21.156;2022-07-05T05:07:00;20.70;94.20
16980;DHT22;42288;52.182;21.156;2022-07-05T05:09:26;20.80;94.50
16980;DHT22;42288;52.182;21.156;2022-07-05T05:11:52;20.80;93.80
16980;DHT22;42288;52.182;21.156;2022-07-05T05:14:18;20.80;93.90
16980;DHT22;42288;52.182;21.156;2022-07-05T05:16:43;20.70;93.80
16980;DHT22;42288;52.182;21.156;2022-07-05T05:19:09;20.60;93.30
16980;DHT22;42288;52.182;21.156;2022-07-05T05:21:35;20.60;93.70
16980;DHT22;42288;52.182;21.156;2022-07-05T05:24:00;20.60;93.60
16980;DHT22;42288;52.182;21.156;2022-07-05T05:26:26;20.60;94.10
16980;DHT22;42288;52.182;21.156;2022-07-05T05:28:52;20.60;94.10
16980;DHT22;42288;52.182;21.156;2022-07-05T05:31:18;20.70;93.90
16980;DHT22;42288;52.182;21.156;2022-07-05T05:33:44;20.70;93.90
16980;DHT22;42288;52.182;21.156;2022-07-05T05:36:10;20.80;93.80
16980;DHT22;42288;52.182;21.156;2022-07-05T05:38:36;21.00;93.50
16980;DHT22;42288;52.182;21.156;2022-07-05T05:41:01;21.20;93.20
16980;DHT22;42288;52.182;21.156;2022-07-05T05:43:27;21.30;93.00
16980;DHT22;42288;52.182;21.156;2022-07-05T05:45:53;21.20;92.50
16980;DHT22;42288;52.182;21.156;2022-07-05T05:48:18;21.00;92.90
16980;DHT22;42288;52.182;21.156;2022-07-05T05:50:45;21.10;92.70
16980;DHT22;42288;52.182;21.156;2022-07-05T05:53:11;21.30;92.60
16980;DHT22;42288;52.182;21.156;2022-07-05T05:55:37;21.50;92.40
16980;DHT22;42288;52.182;21.156;2022-07-05T05:58:16;21.40;92.20
16980;DHT22;42288;52.182;21.156;2022-07-05T06:00:42;21.40;92.00
16980;DHT22;42288;52.182;21.156;2022-07-05T06:03:09;21.50;91.90
16980;DHT22;42288;52.182;21.156;2022-07-05T06:05:34;21.40;91.80
16980;DHT22;42288;52.182;21.156;2022-07-05T06:08:00;21.40;92.00
16980;DHT22;42288;52.182;21.156;2022-07-05T06:10:30;21.50;91.80
16980;DHT22;42288;52.182;21.156;2022-07-05T06:12:58;21.80;91.60
16980;DHT22;42288;52.182;21.156;2022-07-05T06:15:24;21.80;91.70
16980;DHT22;42288;52.182;21.156;2022-07-05T06:17:50;21.70;91.30
16980;DHT22;42288;52.182;21.156;2022-07-05T06:20:21;21.70;91.30
16980;DHT22;42288;52.182;21.156;2022-07-05T06:22:48;21.70;91.30
16980;DHT22;42288;52.182;21.156;2022-07-05T06:25:14;21.80;91.20
16980;DHT22;42288;52.182;21.156;2022-07-05T06:27:41;22.10;91.00
16980;DHT22;42288;52.182;21.156;2022-07-05T06:30:08;22.20;91.00
16980;DHT22;42288;52.182;21.156;2022-07-05T06:32:34;22.30;90.80
16980;DHT22;42288;52.182;21.156;2022-07-05T06:35:00;22.40;90.70
16980;DHT22;42288;52.182;21.156;2022-07-05T06:37:26;22.70;90.30
16980;DHT22;42288;52.182;21.156;2022-07-05T06:39:51;22.60;89.90
16980;DHT22;42288;52.182;21.156;2022-07-05T06:42:17;22.60;88.60
16980;DHT22;42288;52.182;21.156;2022-07-05T06:44:42;22.80;89.20
16980;DHT22;42288;52.182;21.156;2022-07-05T06:47:09;22.90;89.20
16980;DHT22;42288;52.182;21.156;2022-07-05T06:49:35;23.00;88.90
16980;DHT22;42288;52.182;21.156;2022-07-05T06:52:00;23.10;88.40
16980;DHT22;42288;52.182;21.156;2022-07-05T06:54:26;23.30;87.70
16980;DHT22;42288;52.182;21.156;2022-07-05T06:56:52;23.40;86.90
16980;DHT22;42288;52.182;21.156;2022-07-05T06:59:20;23.60;86.60
16980;DHT22;42288;52.182;21.156;2022-07-05T07:01:46;23.80;85.90
16980;DHT22;42288;52.182;21.156;2022-07-05T07:04:11;24.00;85.10
16980;DHT22;42288;52.182;21.156;2022-07-05T07:06:37;23.80;83.60
16980;DHT22;42288;52.182;21.156;2022-07-05T07:09:02;23.70;85.50
16980;DHT22;42288;52.182;21.156;2022-07-05T07:11:44;23.90;85.20
16980;DHT22;42288;52.182;21.156;2022-07-05T07:14:10;24.20;83.70
16980;DHT22;42288;52.182;21.156;2022-07-05T07:16:35;24.20;82.20
16980;DHT22;42288;52.182;21.156;2022-07-05T07:19:01;24.20;82.80
16980;DHT22;42288;52.182;21.156;2022-07-05T07:21:27;24.20;82.00
16980;DHT22;42288;52.182;21.156;2022-07-05T07:23:52;24.10;83.20
16980;DHT22;42288;52.182;21.156;2022-07-05T07:26:18;24.30;81.80
16980;DHT22;42288;52.182;21.156;2022-07-05T07:28:43;24.30;81.60
16980;DHT22;42288;52.182;21.156;2022-07-05T07:31:09;24.50;81.30
16980;DHT22;42288;52.182;21.156;2022-07-05T07:33:35;24.80;80.70
16980;DHT22;42288;52.182;21.156;2022-07-05T07:36:00;24.80;81.00
16980;DHT22;42288;52.182;21.156;2022-07-05T07:38:26;25.00;79.40
16980;DHT22;42288;52.182;21.156;2022-07-05T07:40:52;25.10;78.20
16980;DHT22;42288;52.182;21.156;2022-07-05T07:43:18;25.20;77.80
16980;DHT22;42288;52.182;21.156;2022-07-05T07:45:43;25.30;77.10
16980;DHT22;42288;52.182;21.156;2022-07-05T07:48:09;25.40;77.20
16980;DHT22;42288;52.182;21.156;2022-07-05T07:50:35;25.50;77.50
16980;DHT22;42288;52.182;21.156;2022-07-05T07:53:00;25.80;76.90
16980;DHT22;42288;52.182;21.156;2022-07-05T07:55:26;25.60;75.40
16980;DHT22;42288;52.182;21.156;2022-07-05T07:57:52;25.80;74.40
16980;DHT22;42288;52.182;21.156;2022-07-05T08:00:18;25.70;75.30
16980;DHT22;42288;52.182;21.156;2022-07-05T08:02:43;25.60;75.80
16980;DHT22;42288;52.182;21.156;2022-07-05T08:05:09;25.70;74.50
16980;DHT22;42288;52.182;21.156;2022-07-05T08:07:35;25.70;74.80
16980;DHT22;42288;52.182;21.156;2022-07-05T08:10:02;25.90;74.90
16980;DHT22;42288;52.182;21.156;2022-07-05T08:12:28;26.10;75.50
16980;DHT22;42288;52.182;21.156;2022-07-05T08:14:53;26.10;74.30
16980;DHT22;42288;52.182;21.156;2022-07-05T08:17:19;26.10;74.80
16980;DHT22;42288;52.182;21.156;2022-07-05T08:19:46;26.20;73.90
16980;DHT22;42288;52.182;21.156;2022-07-05T08:22:30;26.30;73.30
16980;DHT22;42288;52.182;21.156;2022-07-05T08:24:55;26.20;72.40
16980;DHT22;42288;52.182;21.156;2022-07-05T08:27:21;26.20;72.50
16980;DHT22;42288;52.182;21.156;2022-07-05T08:29:46;26.40;73.90
16980;DHT22;42288;52.182;21.156;2022-07-05T08:32:12;26.50;72.60
16980;DHT22;42288;52.182;21.156;2022-07-05T08:34:38;26.60;71.50
16980;DHT22;42288;52.182;21.156;2022-07-05T08:37:04;26.60;71.40
16980;DHT22;42288;52.182;21.156;2022-07-05T08:39:29;26.70;70.50
16980;DHT22;42288;52.182;21.156;2022-07-05T08:41:57;26.80;70.00
16980;DHT22;42288;52.182;21.156;2022-07-05T08:44:23;26.90;68.00
16980;DHT22;42288;52.182;21.156;2022-07-05T08:46:50;27.00;68.60
16980;DHT22;42288;52.182;21.156;2022-07-05T08:49:37;27.00;68.60
16980;DHT22;42288;52.182;21.156;2022-07-05T08:52:04;27.20;68.90
16980;DHT22;42288;52.182;21.156;2022-07-05T08:54:32;27.50;67.10
16980;DHT22;42288;52.182;21.156;2022-07-05T08:56:58;27.00;65.20
16980;DHT22;42288;52.182;21.156;2022-07-05T08:59:23;27.10;67.80
16980;DHT22;42288;52.182;21.156;2022-07-05T09:01:49;27.60;68.70
16980;DHT22;42288;52.182;21.156;2022-07-05T09:04:17;27.70;64.80
16980;DHT22;42288;52.182;21.156;2022-07-05T09:06:45;27.80;64.80
16980;DHT22;42288;52.182;21.156;2022-07-05T09:09:13;28.00;64.90
16980;DHT22;42288;52.182;21.156;2022-07-05T09:11:41;28.20;64.80
16980;DHT22;42288;52.182;21.156;2022-07-05T09:14:22;28.30;64.10
16980;DHT22;42288;52.182;21.156;2022-07-05T09:16:49;28.70;63.80
16980;DHT22;42288;52.182;21.156;2022-07-05T09:19:14;28.90;61.80
16980;DHT22;42288;52.182;21.156;2022-07-05T09:21:40;28.80;60.50
16980;DHT22;42288;52.182;21.156;2022-07-05T09:24:08;29.10;60.90
16980;DHT22;42288;52.182;21.156;2022-07-05T09:29:09;29.50;59.70
16980;DHT22;42288;52.182;21.156;2022-07-05T09:31:39;29.40;59.60
16980;DHT22;42288;52.182;21.156;2022-07-05T09:34:06;29.50;59.10
16980;DHT22;42288;52.182;21.156;2022-07-05T09:36:54;29.50;58.60
16980;DHT22;42288;52.182;21.156;2022-07-05T09:44:57;29.40;58.30
16980;DHT22;42288;52.182;21.156;2022-07-05T09:47:29;29.20;57.30
16980;DHT22;42288;52.182;21.156;2022-07-05T09:49:59;29.40;58.20
16980;DHT22;42288;52.182;21.156;2022-07-05T09:52:34;29.40;58.10
16980;DHT22;42288;52.182;21.156;2022-07-05T09:55:16;29.50;58.60
16980;DHT22;42288;52.182;21.156;2022-07-05T09:57:43;29.20;58.40
16980;DHT22;42288;52.182;21.156;2022-07-05T10:00:13;29.20;57.90
16980;DHT22;42288;52.182;21.156;2022-07-05T10:02:44;29.30;57.40
16980;DHT22;42288;52.182;21.156;2022-07-05T10:05:12;29.30;58.30
16980;DHT22;42288;52.182;21.156;2022-07-05T10:07:40;29.20;58.10
16980;DHT22;42288;52.182;21.156;2022-07-05T10:10:17;29.30;57.40
16980;DHT22;42288;52.182;21.156;2022-07-05T10:12:44;29.00;57.30
16980;DHT22;42288;52.182;21.156;2022-07-05T10:15:12;28.60;58.40
16980;DHT22;42288;52.182;21.156;2022-07-05T10:17:44;28.50;58.40
16980;DHT22;42288;52.182;21.156;2022-07-05T10:20:21;28.50;59.00
16980;DHT22;42288;52.182;21.156;2022-07-05T10:22:49;28.70;58.80
16980;DHT22;42288;52.182;21.156;2022-07-05T10:25:15;28.60;58.50
16980;DHT22;42288;52.182;21.156;2022-07-05T10:27:42;28.80;58.40
16980;DHT22;42288;52.182;21.156;2022-07-05T10:30:08;28.40;57.10
16980;DHT22;42288;52.182;21.156;2022-07-05T10:32:35;28.50;58.90
16980;DHT22;42288;52.182;21.156;2022-07-05T10:35:02;28.60;58.60
16980;DHT22;42288;52.182;21.156;2022-07-05T10:37:31;28.60;58.50
16980;DHT22;42288;52.182;21.156;2022-07-05T10:39:58;28.70;58.00
16980;DHT22;42288;52.182;21.156;2022-07-05T10:42:26;28.80;57.50
16980;DHT22;42288;52.182;21.156;2022-07-05T10:44:52;28.60;57.60
16980;DHT22;42288;52.182;21.156;2022-07-05T10:47:18;28.60;57.50
16980;DHT22;42288;52.182;21.156;2022-07-05T10:50:03;28.70;57.80
16980;DHT22;42288;52.182;21.156;2022-07-05T10:52:29;28.50;58.10
16980;DHT22;42288;52.182;21.156;2022-07-05T10:55:17;28.60;58.20
16980;DHT22;42288;52.182;21.156;2022-07-05T10:57:43;28.80;57.90
16980;DHT22;42288;52.182;21.156;2022-07-05T11:00:10;29.20;57.60
16980;DHT22;42288;52.182;21.156;2022-07-05T11:02:37;29.40;57.10
16980;DHT22;42288;52.182;21.156;2022-07-05T11:05:04;29.80;56.70
16980;DHT22;42288;52.182;21.156;2022-07-05T11:07:58;30.10;55.80
16980;DHT22;42288;52.182;21.156;2022-07-05T11:10:24;30.20;55.60
16980;DHT22;42288;52.182;21.156;2022-07-05T11:12:49;29.70;54.90
16980;DHT22;42288;52.182;21.156;2022-07-05T11:15:15;29.20;55.80
16980;DHT22;42288;52.182;21.156;2022-07-05T11:17:40;29.40;56.70
16980;DHT22;42288;52.182;21.156;2022-07-05T11:20:13;29.60;56.30
16980;DHT22;42288;52.182;21.156;2022-07-05T11:25:24;29.30;56.30
16980;DHT22;42288;52.182;21.156;2022-07-05T11:28:01;29.60;56.40
16980;DHT22;42288;52.182;21.156;2022-07-05T11:30:44;29.90;56.10
16980;DHT22;42288;52.182;21.156;2022-07-05T11:35:57;30.40;55.30
16980;DHT22;42288;52.182;21.156;2022-07-05T11:38:23;30.20;54.80
16980;DHT22;42288;52.182;21.156;2022-07-05T11:40:48;30.40;54.50
16980;DHT22;42288;52.182;21.156;2022-07-05T11:43:14;30.70;54.10
16980;DHT22;42288;52.182;21.156;2022-07-05T11:45:40;30.40;53.90
16980;DHT22;42288;52.182;21.156;2022-07-05T11:48:06;30.20;54.20
16980;DHT22;42288;52.182;21.156;2022-07-05T11:50:39;30.40;54.40
16980;DHT22;42288;52.182;21.156;2022-07-05T11:53:05;30.10;54.60
16980;DHT22;42288;52.182;21.156;2022-07-05T11:55:30;29.90;54.20
16980;DHT22;42288;52.182;21.156;2022-07-05T11:57:58;30.00;54.60
16980;DHT22;42288;52.182;21.156;2022-07-05T12:00:30;30.10;54.50
16980;DHT22;42288;52.182;21.156;2022-07-05T12:02:57;30.10;54.20
16980;DHT22;42288;52.182;21.156;2022-07-05T12:05:23;30.00;54.10
16980;DHT22;42288;52.182;21.156;2022-07-05T12:07:52;29.80;53.90
16980;DHT22;42288;52.182;21.156;2022-07-05T12:10:18;29.70;54.00
16980;DHT22;42288;52.182;21.156;2022-07-05T12:13:06;29.30;53.60
16980;DHT22;42288;52.182;21.156;2022-07-05T12:15:33;29.30;55.10
16980;DHT22;42288;52.182;21.156;2022-07-05T12:18:00;29.20;55.60
16980;DHT22;42288;52.182;21.156;2022-07-05T12:20:33;29.00;55.80
16980;DHT22;42288;52.182;21.156;2022-07-05T12:22:59;28.70;55.80
16980;DHT22;42288;52.182;21.156;2022-07-05T12:25:27;28.40;55.70
16980;DHT22;42288;52.182;21.156;2022-07-05T12:27:55;28.30;56.20
16980;DHT22;42288;52.182;21.156;2022-07-05T12:30:22;28.40;56.50
16980;DHT22;42288;52.182;21.156;2022-07-05T12:33:08;28.30;56.60
16980;DHT22;42288;52.182;21.156;2022-07-05T12:35:42;28.10;56.60
16980;DHT22;42288;52.182;21.156;2022-07-05T12:38:15;28.20;57.30
16980;DHT22;42288;52.182;21.156;2022-07-05T12:40:43;28.10;57.50
16980;DHT22;42288;52.182;21.156;2022-07-05T12:43:11;28.10;57.10
16980;DHT22;42288;52.182;21.156;2022-07-05T12:45:39;28.10;56.70
16980;DHT22;42288;52.182;21.156;2022-07-05T12:48:06;27.80;57.30
16980;DHT22;42288;52.182;21.156;2022-07-05T12:53:11;27.60;57.90
16980;DHT22;42288;52.182;21.156;2022-07-05T12:56:14;27.50;58.00
16980;DHT22;42288;52.182;21.156;2022-07-05T12:59:04;27.40;58.30
16980;DHT22;42288;52.182;21.156;2022-07-05T13:01:35;27.10;58.70
16980;DHT22;42288;52.182;21.156;2022-07-05T13:04:16;26.90;59.30
16980;DHT22;42288;52.182;21.156;2022-07-05T13:06:48;26.80;59.80
16980;DHT22;42288;52.182;21.156;2022-07-05T13:09:37;26.80;59.60
16980;DHT22;42288;52.182;21.156;2022-07-05T13:14:34;26.60;59.80
16980;DHT22;42288;52.182;21.156;2022-07-05T13:17:00;26.40;59.80
16980;DHT22;42288;52.182;21.156;2022-07-05T13:19:26;26.40;60.60
16980;DHT22;42288;52.182;21.156;2022-07-05T13:21:52;26.30;61.50
16980;DHT22;42288;52.182;21.156;2022-07-05T13:24:17;26.20;61.60
16980;DHT22;42288;52.182;21.156;2022-07-05T13:26:43;26.30;61.50
16980;DHT22;42288;52.182;21.156;2022-07-05T13:29:08;26.30;61.40
16980;DHT22;42288;52.182;21.156;2022-07-05T13:31:34;26.30;60.90
16980;DHT22;42288;52.182;21.156;2022-07-05T13:33:59;26.30;61.30
16980;DHT22;42288;52.182;21.156;2022-07-05T13:36:26;26.20;62.00
16980;DHT22;42288;52.182;21.156;2022-07-05T13:38:51;26.20;62.40
16980;DHT22;42288;52.182;21.156;2022-07-05T13:41:17;26.10;63.10
16980;DHT22;42288;52.182;21.156;2022-07-05T13:43:43;26.10;63.70
16980;DHT22;42288;52.182;21.156;2022-07-05T13:46:10;25.90;64.70
16980;DHT22;42288;52.182;21.156;2022-07-05T13:48:36;25.70;67.20
16980;DHT22;42288;52.182;21.156;2022-07-05T13:51:02;25.50;66.30
16980;DHT22;42288;52.182;21.156;2022-07-05T13:53:27;25.60;67.50
16980;DHT22;42288;52.182;21.156;2022-07-05T13:55:53;25.40;69.10
16980;DHT22;42288;52.182;21.156;2022-07-05T13:58:18;25.20;71.60
16980;DHT22;42288;52.182;21.156;2022-07-05T14:00:44;25.20;72.70
16980;DHT22;42288;52.182;21.156;2022-07-05T14:03:09;25.00;77.30
16980;DHT22;42288;52.182;21.156;2022-07-05T14:05:35;25.00;80.80
16980;DHT22;42288;52.182;21.156;2022-07-05T14:08:01;25.00;82.30
16980;DHT22;42288;52.182;21.156;2022-07-05T14:10:27;24.70;85.40
16980;DHT22;42288;52.182;21.156;2022-07-05T14:12:52;23.90;89.70
16980;DHT22;42288;52.182;21.156;2022-07-05T14:15:18;23.60;91.30
16980;DHT22;42288;52.182;21.156;2022-07-05T14:17:44;22.60;92.70
16980;DHT22;42288;52.182;21.156;2022-07-05T14:20:09;22.80;95.40
16980;DHT22;42288;52.182;21.156;2022-07-05T14:22:35;22.70;96.20
16980;DHT22;42288;52.182;21.156;2022-07-05T14:25:01;22.30;96.80
16980;DHT22;42288;52.182;21.156;2022-07-05T14:27:26;22.00;98.60
16980;DHT22;42288;52.182;21.156;2022-07-05T14:29:52;22.10;99.50
16980;DHT22;42288;52.182;21.156;2022-07-05T14:32:18;22.10;99.90
16980;DHT22;42288;52.182;21.156;2022-07-05T14:34:43;22.20;99.90
16980;DHT22;42288;52.182;21.156;2022-07-05T14:37:09;22.40;99.90
16980;DHT22;42288;52.182;21.156;2022-07-05T14:39:34;22.20;99.90
16980;DHT22;42288;52.182;21.156;2022-07-05T14:42:00;22.20;99.90
16980;DHT22;42288;52.182;21.156;2022-07-05T14:44:25;22.30;99.90
16980;DHT22;42288;52.182;21.156;2022-07-05T14:46:51;22.20;99.90
16980;DHT22;42288;52.182;21.156;2022-07-05T14:49:16;22.30;99.90
16980;DHT22;42288;52.182;21.156;2022-07-05T14:51:42;22.00;99.90
16980;DHT22;42288;52.182;21.156;2022-07-05T14:54:07;21.90;99.90
16980;DHT22;42288;52.182;21.156;2022-07-05T14:56:33;22.00;99.90
16980;DHT22;42288;52.182;21.156;2022-07-05T14:58:58;22.00;99.90
16980;DHT22;42288;52.182;21.156;2022-07-05T15:01:24;22.20;99.90
16980;DHT22;42288;52.182;21.156;2022-07-05T15:03:49;22.10;99.90
16980;DHT22;42288;52.182;21.156;2022-07-05T15:06:15;22.20;99.90
16980;DHT22;42288;52.182;21.156;2022-07-05T15:08:42;22.10;99.90
16980;DHT22;42288;52.182;21.156;2022-07-05T15:11:07;22.10;99.90
16980;DHT22;42288;52.182;21.156;2022-07-05T15:13:33;22.20;99.90
16980;DHT22;42288;52.182;21.156;2022-07-05T15:16:00;22.20;99.90
16980;DHT22;42288;52.182;21.156;2022-07-05T15:18:26;22.30;99.90
16980;DHT22;42288;52.182;21.156;2022-07-05T15:20:52;22.40;99.90
16980;DHT22;42288;52.182;21.156;2022-07-05T15:23:21;22.40;99.90
16980;DHT22;42288;52.182;21.156;2022-07-05T15:25:49;22.30;99.90
16980;DHT22;42288;52.182;21.156;2022-07-05T15:28:16;22.40;99.90
16980;DHT22;42288;52.182;21.156;2022-07-05T15:30:41;22.40;99.90
16980;DHT22;42288;52.182;21.156;2022-07-05T15:33:07;22.30;99.90
16980;DHT22;42288;52.182;21.156;2022-07-05T15:35:33;22.30;99.90
16980;DHT22;42288;52.182;21.156;2022-07-05T15:37:58;22.40;99.90